createdAt,value
2022-12-26T00:02:00.313Z,31.80
2022-12-26T00:04:48.914Z,32.10
2022-12-26T00:07:16.485Z,30.70
2022-12-26T00:09:44.600Z,31.73
2022-12-26T00:12:16.409Z,34.67
2022-12-26T00:14:44.580Z,32.97
2022-12-26T00:17:12.515Z,33.22
2022-12-26T00:19:41.266Z,33.67
2022-12-26T00:22:09.103Z,31.27
2022-12-26T00:24:39.700Z,30.92
2022-12-26T00:27:07.785Z,31.73
2022-12-26T00:29:35.834Z,33.78
2022-12-26T00:32:03.848Z,32.90
2022-12-26T00:34:31.892Z,31.88
2022-12-26T00:37:00.317Z,33.20
2022-12-26T00:39:28.104Z,33.95
2022-12-26T00:41:56.008Z,33.47
2022-12-26T00:44:24.210Z,34.33
2022-12-26T00:46:52.333Z,35.22
2022-12-26T00:49:20.359Z,35.17
2022-12-26T00:51:48.151Z,37.42
2022-12-26T00:54:16.122Z,36.33
2022-12-26T00:56:44.169Z,36.15
2022-12-26T00:59:12.526Z,37.17
2022-12-26T01:01:40.690Z,36.15
2022-12-26T01:04:08.728Z,37.42
2022-12-26T01:06:39.342Z,35.60
2022-12-26T01:09:08.618Z,37.20
2022-12-26T01:11:41.293Z,38.97
2022-12-26T01:14:14.446Z,38.25
2022-12-26T01:16:43.962Z,36.08
2022-12-26T01:19:12.253Z,38.15
2022-12-26T01:21:40.215Z,39.42
2022-12-26T01:24:08.734Z,38.47
2022-12-26T01:26:37.621Z,38.78
2022-12-26T01:29:05.476Z,37.42
2022-12-26T01:31:35.823Z,35.67
2022-12-26T01:34:03.612Z,36.55
2022-12-26T01:36:31.580Z,34.90
2022-12-26T01:39:02.675Z,32.20
2022-12-26T01:41:33.381Z,34.70
2022-12-26T01:44:07.016Z,31.98
2022-12-26T01:46:37.492Z,29.73
2022-12-26T01:49:14.266Z,30.23
2022-12-26T01:51:44.064Z,33.03
2022-12-26T01:54:40.351Z,32.25
2022-12-26T01:57:00.415Z,32.97
2022-12-26T01:59:29.416Z,34.95
2022-12-26T02:01:57.533Z,34.45
2022-12-26T02:04:53.931Z,35.08
2022-12-26T02:07:22.175Z,37.03
2022-12-26T02:09:50.319Z,37.13
2022-12-26T02:12:34.041Z,34.50
2022-12-26T02:15:09.705Z,36.92
2022-12-26T02:17:39.113Z,35.88
2022-12-26T02:20:33.758Z,33.20
2022-12-26T02:23:31.285Z,36.22
2022-12-26T02:26:19.977Z,34.83
2022-12-26T02:28:50.750Z,35.08
2022-12-26T02:31:32.135Z,33.92
2022-12-26T02:34:34.246Z,34.83
2022-12-26T02:37:05.200Z,34.95
2022-12-26T02:39:46.841Z,32.10
2022-12-26T02:42:17.802Z,34.22
2022-12-26T02:45:40.030Z,34.55
2022-12-26T02:48:28.256Z,32.65
2022-12-26T02:51:23.776Z,34.70
2022-12-26T02:54:34.824Z,33.13
2022-12-26T02:57:26.269Z,33.28
2022-12-26T03:00:20.802Z,32.60
2022-12-26T03:03:15.933Z,34.35
2022-12-26T03:06:17.609Z,33.58
2022-12-26T03:09:30.548Z,34.53
2022-12-26T03:12:26.098Z,32.65
2022-12-26T03:15:02.079Z,33.58
2022-12-26T03:17:56.945Z,32.00
2022-12-26T03:20:27.813Z,33.42
2022-12-26T03:22:56.399Z,31.70
2022-12-26T03:25:54.971Z,31.50
2022-12-26T03:28:22.965Z,29.67
2022-12-26T03:30:51.041Z,31.38
2022-12-26T03:33:54.292Z,32.30
2022-12-26T03:36:49.352Z,27.58
2022-12-26T03:39:44.003Z,30.95
2022-12-26T03:42:55.245Z,30.02
2022-12-26T03:46:16.407Z,29.83
2022-12-26T03:49:11.772Z,32.67
2022-12-26T03:51:59.133Z,30.90
2022-12-26T03:54:54.179Z,31.50
2022-12-26T03:57:40.906Z,31.08
2022-12-26T04:00:28.599Z,30.70
2022-12-26T04:03:19.540Z,29.58
2022-12-26T04:06:06.140Z,30.52
2022-12-26T04:11:58.663Z,28.27
2022-12-26T04:15:14.302Z,28.75
2022-12-26T04:18:14.521Z,31.85
2022-12-26T04:20:44.912Z,29.42
2022-12-26T04:23:56.043Z,32.28
2022-12-26T04:26:46.324Z,31.08
2022-12-26T04:29:33.005Z,29.60
2022-12-26T04:32:28.706Z,30.25
2022-12-26T04:35:46.673Z,29.65
2022-12-26T04:38:34.783Z,32.25
2022-12-26T04:41:20.962Z,30.90
2022-12-26T04:44:08.197Z,29.42
2022-12-26T04:46:44.077Z,28.35
2022-12-26T04:49:32.328Z,31.05
2022-12-26T04:52:00.939Z,31.42
2022-12-26T04:54:29.788Z,33.20
2022-12-26T04:56:58.026Z,31.10
2022-12-26T04:59:27.153Z,31.75
2022-12-26T05:02:13.330Z,31.92
2022-12-26T05:05:00.445Z,30.00
2022-12-26T05:07:49.076Z,30.83
2022-12-26T05:10:25.245Z,32.05
2022-12-26T05:12:54.786Z,28.42
2022-12-26T05:15:22.779Z,28.33
2022-12-26T05:18:09.483Z,27.30
2022-12-26T05:20:39.872Z,25.55
2022-12-26T05:23:41.526Z,27.25
2022-12-26T05:26:39.723Z,25.13
2022-12-26T05:29:07.859Z,24.10
2022-12-26T05:31:37.069Z,24.50
2022-12-26T05:34:06.874Z,22.15
2022-12-26T05:36:45.032Z,22.10
2022-12-26T05:39:13.768Z,21.15
2022-12-26T05:41:42.487Z,21.90
2022-12-26T05:44:10.916Z,21.38
2022-12-26T05:46:42.759Z,21.58
2022-12-26T05:49:12.225Z,20.83
2022-12-26T05:51:40.256Z,21.83
2022-12-26T05:54:08.018Z,20.52
2022-12-26T05:56:35.815Z,21.48
2022-12-26T05:59:03.731Z,21.02
2022-12-26T06:01:35.234Z,22.27
2022-12-26T06:04:03.936Z,21.85
2022-12-26T06:06:34.377Z,21.77
2022-12-26T06:09:05.415Z,21.92
2022-12-26T06:11:33.652Z,20.52
2022-12-26T06:14:02.358Z,22.67
2022-12-26T06:16:30.724Z,22.13
2022-12-26T06:18:58.962Z,19.38
2022-12-26T06:21:27.006Z,18.42
2022-12-26T06:23:54.883Z,17.75
2022-12-26T06:26:23.708Z,18.75
2022-12-26T06:28:53.336Z,17.63
2022-12-26T06:31:23.126Z,16.35
2022-12-26T06:33:52.260Z,17.40
2022-12-26T06:36:22.760Z,16.70
2022-12-26T06:38:52.071Z,15.25
2022-12-26T06:41:21.426Z,16.73
2022-12-26T06:43:49.510Z,16.92
2022-12-26T06:46:38.425Z,16.83
2022-12-26T06:49:06.768Z,16.13
2022-12-26T06:51:38.963Z,18.90
2022-12-26T06:54:07.254Z,18.42
2022-12-26T06:56:35.606Z,17.50
2022-12-26T06:59:04.903Z,17.55
2022-12-26T07:01:34.923Z,16.70
2022-12-26T07:04:07.123Z,16.73
2022-12-26T07:06:36.913Z,13.45
2022-12-26T10:53:31.663Z,8.38
2022-12-26T10:56:01.263Z,8.45
2022-12-26T10:58:31.480Z,8.57
2022-12-26T11:01:51.100Z,10.85
2022-12-26T11:04:53.195Z,10.60
2022-12-26T11:07:11.912Z,9.60
2022-12-26T11:09:48.795Z,11.23
2022-12-26T11:12:26.353Z,9.55
2022-12-26T11:14:58.424Z,10.00
2022-12-26T11:17:31.356Z,9.63
2022-12-26T11:20:16.145Z,9.98
2022-12-26T11:22:44.768Z,10.25
2022-12-26T11:25:21.855Z,10.68
2022-12-26T11:27:59.948Z,11.35
2022-12-26T11:30:29.432Z,12.23
2022-12-26T11:33:24.541Z,12.23
2022-12-26T11:35:58.741Z,10.83
2022-12-26T11:38:44.026Z,10.93
2022-12-26T11:41:36.789Z,12.77
2022-12-26T11:44:16.128Z,9.10
2022-12-26T11:46:49.511Z,11.07
2022-12-26T11:49:28.521Z,11.00
2022-12-26T11:51:59.804Z,12.55
2022-12-26T11:54:39.070Z,12.25
2022-12-26T11:57:22.305Z,10.85
2022-12-26T11:59:50.926Z,11.27
2022-12-26T12:02:30.005Z,10.85
2022-12-26T12:05:02.848Z,10.98
2022-12-26T12:08:04.559Z,11.95
2022-12-26T12:11:03.574Z,11.68
2022-12-26T12:14:07.279Z,13.02
2022-12-26T12:16:44.161Z,12.27
2022-12-26T12:19:32.916Z,11.80
2022-12-26T12:22:25.363Z,12.27
2022-12-26T12:25:18.509Z,11.48
2022-12-26T12:28:15.080Z,11.30
2022-12-26T12:30:59.431Z,11.00
2022-12-26T12:33:32.794Z,12.10
2022-12-26T12:36:35.489Z,12.50
2022-12-26T12:39:16.631Z,12.00
2022-12-26T12:42:41.784Z,12.18
2022-12-26T12:45:27.390Z,11.43
2022-12-26T13:09:02.663Z,15.07
2022-12-26T13:11:42.417Z,15.90
2022-12-26T13:14:17.537Z,16.55
2022-12-26T13:17:09.605Z,16.48
2022-12-26T13:20:21.919Z,15.73
2022-12-26T13:23:18.972Z,15.73
2022-12-26T13:26:11.801Z,16.02
2022-12-26T13:29:26.200Z,17.20
2022-12-26T13:32:07.117Z,16.38
2022-12-26T13:34:38.044Z,15.93
2022-12-26T13:37:05.806Z,15.77
2022-12-26T13:39:35.842Z,17.88
2022-12-26T13:42:31.768Z,16.83
2022-12-26T13:45:41.927Z,16.23
2022-12-26T13:48:15.662Z,16.73
2022-12-26T13:50:56.686Z,16.92
2022-12-26T13:53:24.753Z,17.08
2022-12-26T13:55:57.102Z,18.10
2022-12-26T13:58:55.668Z,15.23
2022-12-26T14:01:55.779Z,14.68
2022-12-26T14:04:48.589Z,17.30
2022-12-26T14:07:32.972Z,15.77
2022-12-26T14:10:15.480Z,17.45
2022-12-26T14:13:18.711Z,15.82
2022-12-26T14:16:12.955Z,15.55
2022-12-26T14:18:59.143Z,15.00
2022-12-26T14:21:56.190Z,15.15
2022-12-26T14:24:37.029Z,15.07
2022-12-26T14:27:34.236Z,15.63
2022-12-26T14:30:30.493Z,14.95
2022-12-26T14:33:25.183Z,16.08
2022-12-26T14:36:12.196Z,14.38
2022-12-26T14:39:23.986Z,14.35
2022-12-26T14:42:26.969Z,15.00
2022-12-26T14:45:27.117Z,13.40
2022-12-26T14:47:56.949Z,12.73
2022-12-26T14:50:41.752Z,13.82
2022-12-26T14:53:28.798Z,13.05
2022-12-26T14:55:57.166Z,13.00
2022-12-26T14:58:31.354Z,12.57
2022-12-26T15:01:20.530Z,13.35
2022-12-26T15:04:12.059Z,14.25
2022-12-26T15:06:45.737Z,13.88
2022-12-26T15:09:43.981Z,15.02
2022-12-26T15:12:21.195Z,13.43
2022-12-26T15:15:04.806Z,17.75
2022-12-26T15:17:40.975Z,15.45
2022-12-26T15:20:46.504Z,14.43
2022-12-26T15:23:42.522Z,13.95
2022-12-26T15:26:41.234Z,14.98
2022-12-26T15:29:27.673Z,15.32
2022-12-26T15:32:11.211Z,13.95
2022-12-26T15:35:09.000Z,16.48
2022-12-26T15:37:52.663Z,15.38
2022-12-26T15:40:24.935Z,15.90
2022-12-26T15:43:11.177Z,18.63
2022-12-26T15:46:06.806Z,13.80
2022-12-26T15:49:00.615Z,15.88
2022-12-26T15:51:55.664Z,16.30
2022-12-26T15:54:58.514Z,18.25
2022-12-26T15:57:32.517Z,16.85
2022-12-26T16:00:22.579Z,16.17
2022-12-26T16:03:28.423Z,18.40
2022-12-26T16:06:11.559Z,15.05
2022-12-26T16:08:58.602Z,16.80
2022-12-26T16:11:30.640Z,16.63
2022-12-26T16:14:00.030Z,17.77
2022-12-26T16:16:38.296Z,15.63
2022-12-26T16:19:23.800Z,15.50
2022-12-26T16:22:16.121Z,14.60
2022-12-26T20:49:46.514Z,30.67
2022-12-26T20:52:16.739Z,32.40
2022-12-26T20:54:46.984Z,29.80
2022-12-26T20:57:19.030Z,32.20
2022-12-26T20:59:51.132Z,31.23
2022-12-26T21:02:19.995Z,30.65
2022-12-26T21:04:48.301Z,28.95
2022-12-26T21:07:16.792Z,33.50
2022-12-26T21:09:46.679Z,27.95
2022-12-26T21:12:15.157Z,29.67
2022-12-26T21:14:43.779Z,27.75
2022-12-26T21:17:11.918Z,26.90
2022-12-26T21:19:39.991Z,27.63
2022-12-26T21:22:11.003Z,27.33
2022-12-26T21:24:40.477Z,28.10
2022-12-26T21:27:08.436Z,29.42
2022-12-26T21:29:38.923Z,28.00
2022-12-26T21:32:06.862Z,27.77
2022-12-26T21:34:34.876Z,29.58
2022-12-26T21:37:21.754Z,30.90
2022-12-26T21:39:50.895Z,29.27
2022-12-26T21:42:19.074Z,26.83
2022-12-26T21:44:48.008Z,26.20
2022-12-26T21:47:36.677Z,24.13
2022-12-26T21:50:04.793Z,23.05
2022-12-26T21:52:32.682Z,21.67
2022-12-26T21:55:20.297Z,22.70
2022-12-26T21:57:51.261Z,21.15
2022-12-26T22:00:25.012Z,21.23
2022-12-26T22:03:11.628Z,22.00
2022-12-26T22:05:41.347Z,20.73
2022-12-26T22:08:11.368Z,21.15
2022-12-26T22:11:01.585Z,20.23
2022-12-26T22:13:32.333Z,21.45
2022-12-26T22:16:03.431Z,21.35
2022-12-26T22:18:32.523Z,19.58
2022-12-26T22:21:16.863Z,20.05
2022-12-26T22:23:46.391Z,21.52
2022-12-26T22:26:15.458Z,20.10
2022-12-26T22:28:45.033Z,18.95
2022-12-26T22:31:30.191Z,18.60
2022-12-26T22:34:06.197Z,18.45
2022-12-26T22:36:34.974Z,14.10
2022-12-26T22:39:03.362Z,14.70
2022-12-26T22:41:31.624Z,14.38
2022-12-26T22:44:00.243Z,13.45
2022-12-26T22:46:28.538Z,12.95
2022-12-26T22:48:56.608Z,13.75
2022-12-26T22:51:25.518Z,13.82
2022-12-26T22:53:54.248Z,16.27
2022-12-26T22:56:22.984Z,14.77
2022-12-26T22:58:55.182Z,13.93
2022-12-26T23:01:23.485Z,13.82
2022-12-26T23:03:51.582Z,13.02
2022-12-26T23:06:30.372Z,13.32
2022-12-26T23:09:00.070Z,13.68
2022-12-26T23:11:35.303Z,12.40
2022-12-26T23:14:08.638Z,13.05
2022-12-26T23:16:45.847Z,13.57
2022-12-26T23:19:44.807Z,13.85
2022-12-26T23:22:13.293Z,12.55
2022-12-26T23:24:41.838Z,12.70
2022-12-26T23:27:30.186Z,12.05
2022-12-26T23:30:16.844Z,13.23
2022-12-26T23:32:51.455Z,13.07
2022-12-26T23:35:20.815Z,13.57
2022-12-26T23:37:48.897Z,13.32
2022-12-26T23:40:19.529Z,13.43
2022-12-26T23:42:47.733Z,15.35
2022-12-26T23:45:16.052Z,16.98
2022-12-26T23:47:46.885Z,14.23
2022-12-26T23:50:16.582Z,15.73
2022-12-26T23:52:45.196Z,14.10
2022-12-26T23:55:13.604Z,12.40
2022-12-26T23:57:44.920Z,12.65
